Saticoy, California
Current Conditions -  °F | °C
As of 1:51 AM on Sunday 26 Oct 2014 (Local Time) from KOXR Reporting Station
Clear Clear  
Wind Chill: 60°   Ceiling: Unl
Heat Index: 60°   Visibility: 10mi
Dew Point: 54°   Wind: 7mph
Humidity: 80%   Direction: 50°NE
Pressure: 30"   Gusts: NA
Location:  34.287°N, 119.172°W
Report Text: KOXR 260851Z AUTO 05006KT 10SM CLR 16/12 A3000 RMK AO2 SLP156 T01560122 58007
Loading
Personal Weather Stations






























Interactive Weather Map
Tropical Storm Tracking
New forecast layout! Learn more

10-Day Weather Forecast

Advertisements
Track Severe Weather on mobile